This is the latest recevied weather packets stored in our database for station/object KG4LKY-5. If no packets are shown the sender has not sent any weather packets the latest 1 day(s).
| Time | Temp. | Humidity | Pressure | Rain* | Wind** | Luminosity | Snow |
|---|---|---|---|---|---|---|---|
| 1778053429 | 17.78° C | 85% | 1007.5 hPa | 0.76 mm | - | - | - |
| 1778053129 | 17.22° C | 84% | 1007.6 hPa | 0.76 mm | - | - | - |
| 1778052528 | 17.78° C | 81% | 1007.7 hPa | 0.76 mm | - | - | - |
| 1778052228 | 17.78° C | 78% | 1007.6 hPa | 0.51 mm | - | - | - |
| 1778051928 | 17.78° C | 75% | 1007.6 hPa | 0.51 mm | - | - | - |
| 1778050426 | 17.78° C | 74% | 1007.7 hPa | 0.51 mm | - | - | - |
| 1778049826 | 16.67° C | 77% | 1007.8 hPa | 0.51 mm | - | - | - |
| 1778048024 | 17.22° C | 75% | 1008.2 hPa | 0.51 mm | - | - | - |
| 1778047423 | 17.22° C | 76% | 1008.5 hPa | 0.51 mm | - | - | - |
| 1778047122 | 16.67° C | 75% | 1008.5 hPa | 0.51 mm | - | - | - |
| 1778046221 | 16.11° C | 83% | 1008.7 hPa | 0.51 mm | - | - | - |
| 1778045620 | 15.56° C | 86% | 1008.9 hPa | 0.51 mm | - | - | - |
| 1778045320 | 16.67° C | 88% | 1009 hPa | 0.51 mm | - | - | - |
| 1778044719 | 15.56° C | 91% | 1009 hPa | 0.51 mm | - | - | - |
| 1778043818 | 15.56° C | 90% | 1009.2 hPa | 0.51 mm | - | - | - |
| 1778043518 | 15.56° C | 89% | 1009.2 hPa | 0.51 mm | - | - | - |
| 1778042917 | 16.11° C | 87% | 1009.2 hPa | 0.51 mm | - | - | - |
| 1778042316 | 15° C | 89% | 1009.4 hPa | 0.51 mm | - | - | - |
| 1778042016 | 15.56° C | 87% | 1009.7 hPa | 0.51 mm | - | - | - |
| 1778041716 | 15.56° C | 89% | 1009.7 hPa | 0.51 mm | - | - | - |
| 1778041415 | 16.11° C | 85% | 1009.9 hPa | 0.51 mm | - | - | - |
| 1778041115 | 15.56° C | 86% | 1010 hPa | 0.51 mm | - | - | - |
| 1778040814 | 15.56° C | 85% | 1010 hPa | 0.25 mm | - | - | - |
| 1778040514 | 15.56° C | 85% | 1010 hPa | 0 mm | - | - | - |
| 1778040214 | 16.11° C | 82% | 1009.9 hPa | 0 mm | - | - | - |
* Rain since midnight (hover to see other rain measurements)
** Current wind speed in m/s (hover to see current wind gust speed)